Strona główna
METAR-TAF:

METAR-TAF

Lotnisko :

Shelbyville Municipal Airport

Shelbyville, Indiana, Stany Zjednoczone

Szerokość geograficzna: 39-35-08N, Długość geograficzna: 085-48-00W, wysokość: 245 m

Aktualna obserwacja pogody

Raport powstał 50 minut temu, godzina 12:53 UTC
Wiatr 10 kt od północny wschód w porywach dochodzący do 19 kt
Temperatura 17°C
Wilgotność 72%
Ciśnienie 1024 hPa
Widzialność: 16.1 km
bezchmurnie

METAR: KGEZ 241253Z AUTO 05010G19KT 10SM CLR 17/12 A3023 RMK AO2 SLP233 T01670117

czas: 09:43 (13:43 UTC)


TAF: brakujący

Obserwacja i prognoza pogody dla ponad 4000 lotnisk (raport METAR i TAF).

Dostępne stacje oznaczono żółtymi i czerwonymi punktami na mapie.

Najedź kursorem aby zobaczyć nazwę stacji.

Kliknij aby zobaczyć obserwacje i prognozy pogody.

Aby zmienić mapę: kliknij na zielony przycisk z czarnym krzyżykiem, aby powiększyć; na zielony przycisk z myślnikiem, aby pomniejszyć; na zielone strzałki, aby przejść do map sąsiednich.


METAR-TAF: